createdAt,value
2018-05-26T00:01:06.060Z,19.30
2018-05-26T00:03:33.495Z,19.20
2018-05-26T00:06:00.922Z,19.20
2018-05-26T00:08:28.363Z,19.20
2018-05-26T00:10:56.575Z,19.20
2018-05-26T00:13:24.012Z,19.10
2018-05-26T00:15:51.455Z,19.10
2018-05-26T00:18:19.651Z,19.00
2018-05-26T00:20:47.092Z,19.00
2018-05-26T00:23:14.529Z,19.00
2018-05-26T00:25:42.817Z,18.90
2018-05-26T00:28:11.043Z,18.90
2018-05-26T00:30:38.495Z,18.90
2018-05-26T00:33:05.944Z,18.90
2018-05-26T00:35:33.402Z,18.80
2018-05-26T00:38:00.888Z,18.70
2018-05-26T00:40:28.343Z,18.60
2018-05-26T00:42:55.890Z,18.50
2018-05-26T00:45:23.347Z,18.50
2018-05-26T00:47:50.827Z,18.50
2018-05-26T00:50:18.259Z,18.50
2018-05-26T00:52:45.697Z,18.50
2018-05-26T00:55:13.261Z,18.40
2018-05-26T00:57:40.745Z,18.40
2018-05-26T01:00:08.192Z,18.30
2018-05-26T01:02:35.646Z,18.30
2018-05-26T01:05:03.088Z,18.20
2018-05-26T01:07:30.571Z,18.10
2018-05-26T01:09:58.015Z,18.10
2018-05-26T01:12:25.582Z,18.10
2018-05-26T01:14:53.030Z,18.20
2018-05-26T01:17:20.525Z,18.10
2018-05-26T01:19:48.002Z,18.10
2018-05-26T01:22:16.202Z,18.10
2018-05-26T01:24:43.682Z,18.00
2018-05-26T01:27:11.136Z,18.00
2018-05-26T01:29:38.572Z,17.90
2018-05-26T01:32:06.051Z,17.90
2018-05-26T01:34:33.532Z,17.80
2018-05-26T01:37:01.072Z,17.70
2018-05-26T01:39:28.538Z,17.60
2018-05-26T01:41:55.996Z,17.60
2018-05-26T01:44:23.423Z,17.50
2018-05-26T01:46:50.876Z,17.50
2018-05-26T01:49:19.068Z,17.40
2018-05-26T01:51:46.536Z,17.40
2018-05-26T01:54:13.987Z,17.40
2018-05-26T01:56:41.439Z,17.30
2018-05-26T01:59:08.869Z,17.30
2018-05-26T02:01:36.367Z,17.30
2018-05-26T02:04:03.807Z,17.30
2018-05-26T02:06:31.304Z,17.20
2018-05-26T02:08:58.717Z,17.10
2018-05-26T02:11:26.195Z,17.10
2018-05-26T02:13:53.751Z,17.10
2018-05-26T02:16:21.188Z,17.10
2018-05-26T02:18:48.667Z,17.00
2018-05-26T02:21:16.114Z,17.00
2018-05-26T02:23:44.419Z,17.00
2018-05-26T02:26:12.001Z,17.00
2018-05-26T02:28:39.519Z,17.00
2018-05-26T02:31:06.961Z,17.00
2018-05-26T02:33:34.383Z,17.00
2018-05-26T02:36:02.583Z,17.00
2018-05-26T02:38:30.031Z,17.00
2018-05-26T02:40:57.490Z,17.00
2018-05-26T02:43:25.703Z,17.00
2018-05-26T02:45:53.140Z,17.00
2018-05-26T02:48:20.575Z,16.90
2018-05-26T02:50:48.063Z,16.90
2018-05-26T02:53:15.532Z,16.90
2018-05-26T02:55:42.972Z,16.90
2018-05-26T02:58:10.435Z,16.80
2018-05-26T03:00:37.870Z,16.80
2018-05-26T03:03:05.395Z,16.80
2018-05-26T03:05:38.640Z,16.70
2018-05-26T03:08:11.827Z,16.70
2018-05-26T03:10:44.919Z,16.80
2018-05-26T03:13:18.010Z,16.70
2018-05-26T03:16:01.246Z,16.60
2018-05-26T03:18:28.695Z,16.60
2018-05-26T03:20:56.122Z,16.60
2018-05-26T03:23:23.634Z,16.50
2018-05-26T03:25:51.202Z,16.50
2018-05-26T03:28:18.637Z,16.50
2018-05-26T03:30:46.090Z,16.50
2018-05-26T03:33:13.546Z,16.60
2018-05-26T03:35:41.024Z,16.60
2018-05-26T03:38:08.452Z,16.60
2018-05-26T03:40:35.887Z,16.60
2018-05-26T03:43:04.152Z,16.60
2018-05-26T03:45:32.346Z,16.60
2018-05-26T03:47:59.790Z,16.60
2018-05-26T03:50:27.299Z,16.60
2018-05-26T03:52:54.755Z,16.60
2018-05-26T03:55:35.002Z,16.60
2018-05-26T03:58:15.409Z,16.60
2018-05-26T04:00:43.809Z,16.40
2018-05-26T04:03:11.294Z,16.40
2018-05-26T04:05:38.759Z,16.40
2018-05-26T04:08:06.218Z,16.30
2018-05-26T04:10:33.642Z,16.40
2018-05-26T04:13:01.120Z,16.40
2018-05-26T04:15:28.679Z,16.40
2018-05-26T04:17:56.141Z,16.40
2018-05-26T04:20:23.611Z,16.50
2018-05-26T04:22:51.077Z,16.50
2018-05-26T04:25:18.569Z,16.50
2018-05-26T04:27:45.996Z,16.60
2018-05-26T04:30:13.462Z,16.60
2018-05-26T04:32:41.085Z,16.70
2018-05-26T04:35:08.546Z,16.80
2018-05-26T04:37:35.987Z,16.80
2018-05-26T04:40:03.474Z,16.90
2018-05-26T04:42:31.031Z,16.90
2018-05-26T04:44:58.465Z,17.00
2018-05-26T04:47:25.907Z,17.10
2018-05-26T04:49:53.355Z,17.10
2018-05-26T04:52:21.578Z,17.20
2018-05-26T04:54:49.016Z,17.20
2018-05-26T04:57:16.498Z,17.30
2018-05-26T04:59:43.935Z,17.30
2018-05-26T05:02:11.420Z,17.30
2018-05-26T05:04:38.851Z,17.30
2018-05-26T05:07:06.306Z,17.40
2018-05-26T05:09:33.733Z,17.40
2018-05-26T05:12:01.939Z,17.60
2018-05-26T05:14:29.374Z,17.50
2018-05-26T05:16:56.815Z,17.60
2018-05-26T05:19:25.046Z,17.80
2018-05-26T05:21:52.487Z,17.80
2018-05-26T05:24:19.931Z,17.90
2018-05-26T05:26:47.463Z,18.00
2018-05-26T05:29:14.872Z,18.10
2018-05-26T05:31:42.328Z,18.20
2018-05-26T05:34:09.873Z,18.30
2018-05-26T05:36:37.358Z,18.40
2018-05-26T05:39:04.814Z,18.50
2018-05-26T05:41:32.363Z,18.60
2018-05-26T05:43:59.823Z,18.70
2018-05-26T05:46:27.280Z,18.80
2018-05-26T05:48:54.710Z,18.90
2018-05-26T05:51:22.152Z,19.00
2018-05-26T05:53:49.601Z,19.10
2018-05-26T05:56:17.849Z,19.30
2018-05-26T05:58:45.278Z,19.30
2018-05-26T06:01:12.711Z,19.40
2018-05-26T06:03:40.155Z,19.60
2018-05-26T06:06:07.653Z,19.70
2018-05-26T06:08:35.096Z,19.80
2018-05-26T06:11:02.543Z,19.90
2018-05-26T06:13:29.975Z,20.00
2018-05-26T06:15:58.212Z,20.20
2018-05-26T06:18:25.656Z,20.20
2018-05-26T06:20:53.100Z,20.40
2018-05-26T06:23:20.556Z,20.40
2018-05-26T06:25:47.999Z,20.50
2018-05-26T06:28:15.468Z,20.60
2018-05-26T06:30:42.910Z,20.70
2018-05-26T06:33:10.352Z,20.90
2018-05-26T06:35:38.558Z,21.00
2018-05-26T06:38:06.031Z,21.00
2018-05-26T06:40:33.504Z,21.00
2018-05-26T06:43:00.941Z,21.20
2018-05-26T06:45:28.374Z,21.30
2018-05-26T06:47:55.820Z,21.30
2018-05-26T06:50:24.041Z,21.50
2018-05-26T06:52:51.488Z,21.50
2018-05-26T06:55:18.923Z,21.60
2018-05-26T06:57:46.372Z,21.70
2018-05-26T07:00:13.903Z,21.80
2018-05-26T07:02:41.330Z,21.90
2018-05-26T07:05:08.783Z,22.00
2018-05-26T07:07:36.265Z,22.20
2018-05-26T07:10:03.703Z,22.30
2018-05-26T07:12:31.259Z,22.40
2018-05-26T07:14:58.815Z,22.50
2018-05-26T07:17:26.249Z,22.60
2018-05-26T07:19:53.702Z,22.70
2018-05-26T07:22:21.143Z,22.70
2018-05-26T07:24:49.363Z,22.90
2018-05-26T07:27:16.811Z,22.90
2018-05-26T07:29:44.267Z,23.10
2018-05-26T07:32:11.707Z,23.20
2018-05-26T07:34:39.184Z,23.20
2018-05-26T07:37:06.643Z,23.30
2018-05-26T07:39:34.095Z,23.40
2018-05-26T07:42:01.559Z,23.40
2018-05-26T07:44:29.027Z,23.50
2018-05-26T07:46:56.483Z,23.60
2018-05-26T07:49:25.256Z,23.70
2018-05-26T07:51:52.780Z,23.80
2018-05-26T07:54:21.099Z,24.00
2018-05-26T07:56:48.635Z,24.00
2018-05-26T07:59:16.117Z,24.10
2018-05-26T08:01:43.561Z,24.20
2018-05-26T08:04:11.022Z,24.30
2018-05-26T08:06:38.507Z,24.40
2018-05-26T08:09:06.019Z,24.50
2018-05-26T08:11:33.468Z,24.60
2018-05-26T08:14:00.911Z,24.70
2018-05-26T08:16:28.471Z,24.80
2018-05-26T08:18:55.947Z,24.90
2018-05-26T08:21:23.379Z,25.00
2018-05-26T08:23:50.819Z,25.10
2018-05-26T08:26:18.567Z,25.20
2018-05-26T08:28:46.772Z,25.30
2018-05-26T08:31:15.311Z,25.30
2018-05-26T08:33:42.959Z,25.30
2018-05-26T08:36:10.500Z,25.40
2018-05-26T08:38:37.978Z,25.40
2018-05-26T08:41:05.427Z,25.50
2018-05-26T08:43:32.880Z,25.60
2018-05-26T08:46:00.332Z,25.80
2018-05-26T08:48:27.891Z,25.90
2018-05-26T08:50:55.339Z,25.90
2018-05-26T08:53:22.776Z,26.00
2018-05-26T08:55:50.845Z,26.00
2018-05-26T08:58:18.286Z,26.10
2018-05-26T09:00:45.740Z,26.10
2018-05-26T09:03:13.957Z,26.40
2018-05-26T09:05:41.435Z,26.40
2018-05-26T09:08:09.082Z,26.50
2018-05-26T09:10:37.072Z,26.50
2018-05-26T09:13:05.044Z,26.60
2018-05-26T09:15:32.573Z,26.60
2018-05-26T09:17:59.998Z,26.80
2018-05-26T09:20:27.847Z,26.80
2018-05-26T09:22:56.088Z,27.00
2018-05-26T09:25:23.601Z,26.90
2018-05-26T09:27:50.984Z,27.00
2018-05-26T09:30:18.566Z,27.00
2018-05-26T09:32:45.990Z,27.10
2018-05-26T09:35:13.467Z,27.20
2018-05-26T09:37:41.005Z,27.30
2018-05-26T09:40:08.439Z,27.30
2018-05-26T09:42:36.632Z,27.50
2018-05-26T09:45:04.055Z,27.50
2018-05-26T09:47:32.267Z,27.60
2018-05-26T09:49:59.694Z,27.50
2018-05-26T09:52:28.003Z,27.90
2018-05-26T09:54:55.421Z,27.90
2018-05-26T09:57:23.619Z,27.90
2018-05-26T09:59:51.047Z,28.00
2018-05-26T10:02:19.251Z,28.10
2018-05-26T10:04:46.970Z,28.00
2018-05-26T10:07:14.490Z,28.10
2018-05-26T10:09:41.894Z,28.20
2018-05-26T10:12:10.120Z,28.30
2018-05-26T10:14:37.574Z,28.30
2018-05-26T10:17:05.037Z,28.40
2018-05-26T10:19:33.304Z,28.40
2018-05-26T10:22:00.739Z,28.40
2018-05-26T10:24:29.325Z,28.50
2018-05-26T10:26:56.756Z,28.50
2018-05-26T10:29:24.199Z,28.60
2018-05-26T10:31:51.723Z,28.70
2018-05-26T10:34:19.133Z,28.70
2018-05-26T10:36:47.404Z,28.80
2018-05-26T10:39:15.632Z,28.90
2018-05-26T10:41:43.103Z,28.80
2018-05-26T10:44:10.561Z,29.00
2018-05-26T10:46:38.020Z,28.90
2018-05-26T10:49:05.533Z,28.90
2018-05-26T10:51:33.739Z,29.10
2018-05-26T10:54:01.173Z,29.10
2018-05-26T10:56:28.606Z,29.20
2018-05-26T10:58:56.831Z,29.30
2018-05-26T11:01:24.256Z,29.30
2018-05-26T11:03:51.702Z,29.30
2018-05-26T11:06:20.017Z,29.40
2018-05-26T11:08:47.511Z,29.30
2018-05-26T11:11:14.983Z,29.40
2018-05-26T11:13:43.489Z,29.60
2018-05-26T11:16:11.867Z,29.70
2018-05-26T11:18:39.684Z,29.70
2018-05-26T11:21:07.183Z,29.80
2018-05-26T11:23:35.408Z,30.10
2018-05-26T11:26:02.883Z,30.10
2018-05-26T11:28:31.023Z,30.10
2018-05-26T11:30:58.461Z,30.10
2018-05-26T11:33:25.892Z,30.30
2018-05-26T11:35:54.094Z,30.30
2018-05-26T11:38:21.527Z,30.20
2018-05-26T11:40:49.283Z,30.20
2018-05-26T11:43:17.501Z,30.20
2018-05-26T11:45:45.018Z,30.20
2018-05-26T11:48:12.447Z,30.30
2018-05-26T11:50:39.943Z,30.40
2018-05-26T11:53:07.320Z,30.40
2018-05-26T11:55:34.752Z,30.40
2018-05-26T11:58:02.958Z,30.70
2018-05-26T12:00:30.394Z,30.70
2018-05-26T12:02:58.605Z,30.90
2018-05-26T12:05:26.026Z,30.90
2018-05-26T12:07:54.230Z,31.00
2018-05-26T12:10:21.651Z,31.00
2018-05-26T12:12:49.866Z,31.20
2018-05-26T12:15:17.311Z,31.20
2018-05-26T12:17:44.756Z,31.40
2018-05-26T12:20:12.193Z,31.50
2018-05-26T12:22:40.447Z,31.50
2018-05-26T12:25:07.972Z,31.50
2018-05-26T12:27:35.387Z,31.40
2018-05-26T12:30:03.583Z,31.20
2018-05-26T12:32:31.035Z,31.20
2018-05-26T12:34:58.520Z,31.20
2018-05-26T12:37:25.935Z,31.20
2018-05-26T12:39:54.131Z,31.00
2018-05-26T12:42:21.571Z,31.00
2018-05-26T12:44:49.780Z,30.80
2018-05-26T12:47:17.204Z,30.80
2018-05-26T12:49:45.410Z,30.60
2018-05-26T12:52:12.853Z,30.60
2018-05-26T12:54:41.051Z,30.80
2018-05-26T12:57:08.490Z,30.80
2018-05-26T12:59:36.061Z,31.00
2018-05-26T13:02:03.531Z,31.10
2018-05-26T13:04:30.996Z,31.10
2018-05-26T13:06:58.446Z,31.30
2018-05-26T13:09:25.900Z,31.40
2018-05-26T13:11:53.334Z,31.60
2018-05-26T13:14:20.775Z,31.70
2018-05-26T13:16:48.997Z,31.90
2018-05-26T13:19:16.431Z,31.90
2018-05-26T13:21:43.910Z,32.00
2018-05-26T13:24:11.379Z,31.90
2018-05-26T13:26:38.807Z,32.00
2018-05-26T13:29:06.235Z,32.10
2018-05-26T13:31:34.450Z,32.20
2018-05-26T13:34:01.891Z,32.10
2018-05-26T13:36:29.356Z,32.30
2018-05-26T13:38:56.867Z,32.10
2018-05-26T13:41:24.317Z,32.00
2018-05-26T13:43:51.738Z,32.10
2018-05-26T13:46:19.175Z,32.20
2018-05-26T13:48:46.647Z,32.40
2018-05-26T13:51:14.141Z,32.40
2018-05-26T13:53:41.542Z,32.30
2018-05-26T13:56:09.738Z,32.30
2018-05-26T13:58:37.167Z,32.30
2018-05-26T14:01:04.621Z,32.50
2018-05-26T14:03:32.061Z,32.60
2018-05-26T14:06:00.261Z,32.50
2018-05-26T14:08:27.718Z,32.40
2018-05-26T14:10:55.160Z,32.70
2018-05-26T14:13:23.365Z,32.70
2018-05-26T14:15:50.799Z,32.70
2018-05-26T14:18:18.234Z,32.80
2018-05-26T14:20:46.428Z,33.10
2018-05-26T14:23:13.906Z,33.00
2018-05-26T14:25:42.119Z,33.40
2018-05-26T14:28:09.559Z,33.40
2018-05-26T14:30:37.042Z,33.60
2018-05-26T14:33:04.443Z,33.60
2018-05-26T14:35:31.886Z,33.70
2018-05-26T14:38:00.100Z,33.90
2018-05-26T14:40:27.532Z,33.80
2018-05-26T14:42:54.967Z,34.10
2018-05-26T14:45:22.404Z,34.20
2018-05-26T14:47:50.716Z,34.40
2018-05-26T14:50:18.150Z,34.40
2018-05-26T14:52:45.612Z,34.40
2018-05-26T14:55:13.061Z,34.40
2018-05-26T14:57:41.252Z,34.60
2018-05-26T15:00:08.681Z,34.60
2018-05-26T15:02:36.890Z,35.10
2018-05-26T15:05:04.339Z,35.00
2018-05-26T15:07:31.787Z,35.30
2018-05-26T15:09:59.215Z,35.40
2018-05-26T15:12:27.422Z,35.80
2018-05-26T15:14:54.857Z,35.70
2018-05-26T15:17:22.288Z,36.00
2018-05-26T15:19:49.718Z,36.20
2018-05-26T15:22:17.148Z,36.40
2018-05-26T15:24:44.598Z,36.50
2018-05-26T15:27:12.783Z,36.80
2018-05-26T15:29:41.023Z,36.80
2018-05-26T15:32:08.459Z,36.90
2018-05-26T15:34:35.906Z,37.10
2018-05-26T15:37:04.118Z,37.60
2018-05-26T15:39:32.330Z,37.70
2018-05-26T15:41:59.761Z,37.70
2018-05-26T15:44:27.959Z,37.90
2018-05-26T15:46:55.394Z,37.90
2018-05-26T15:49:23.596Z,37.80
2018-05-26T15:51:51.044Z,37.90
2018-05-26T15:54:18.475Z,37.70
2018-05-26T15:56:46.689Z,37.20
2018-05-26T15:59:14.104Z,37.20
2018-05-26T16:01:41.546Z,37.20
2018-05-26T16:04:08.991Z,36.90
2018-05-26T16:06:36.425Z,36.60
2018-05-26T16:09:05.571Z,35.30
2018-05-26T16:11:33.008Z,35.30
2018-05-26T16:14:00.434Z,34.60
2018-05-26T16:16:28.748Z,33.90
2018-05-26T16:18:56.191Z,33.80
2018-05-26T16:21:24.385Z,33.60
2018-05-26T16:23:51.814Z,33.60
2018-05-26T16:26:19.243Z,33.90
2018-05-26T16:28:46.696Z,34.00
2018-05-26T16:31:14.211Z,33.80
2018-05-26T16:33:41.643Z,34.10
2018-05-26T16:36:09.819Z,35.20
2018-05-26T16:38:37.258Z,35.20
2018-05-26T16:41:05.481Z,35.80
2018-05-26T16:43:32.918Z,35.70
2018-05-26T16:46:00.403Z,35.90
2018-05-26T16:48:27.823Z,35.60
2018-05-26T16:50:55.254Z,35.60
2018-05-26T16:53:23.474Z,34.20
2018-05-26T16:55:50.902Z,34.20
2018-05-26T16:58:19.091Z,33.20
2018-05-26T17:00:46.545Z,33.20
2018-05-26T17:03:14.723Z,32.50
2018-05-26T17:05:42.179Z,32.50
2018-05-26T17:08:09.615Z,32.20
2018-05-26T17:10:37.811Z,31.60
2018-05-26T17:13:05.289Z,31.60
2018-05-26T17:15:32.709Z,31.50
2018-05-26T17:18:00.978Z,31.00
2018-05-26T17:20:29.167Z,30.90
2018-05-26T17:22:56.607Z,30.80
2018-05-26T17:25:24.040Z,30.80
2018-05-26T17:27:51.565Z,30.80
2018-05-26T17:30:18.994Z,30.80
2018-05-26T17:32:47.231Z,30.60
2018-05-26T17:35:14.769Z,30.60
2018-05-26T17:37:42.318Z,30.50
2018-05-26T17:40:09.735Z,30.50
2018-05-26T17:42:37.935Z,30.40
2018-05-26T17:45:05.419Z,30.40
2018-05-26T17:47:32.869Z,30.30
2018-05-26T17:50:00.287Z,30.20
2018-05-26T17:52:28.506Z,30.10
2018-05-26T17:54:55.951Z,30.00
2018-05-26T17:57:23.379Z,30.00
2018-05-26T17:59:51.584Z,29.80
2018-05-26T18:02:19.078Z,29.80
2018-05-26T18:04:46.623Z,29.70
2018-05-26T18:07:14.166Z,29.50
2018-05-26T18:09:41.627Z,29.50
2018-05-26T18:12:09.087Z,29.30
2018-05-26T18:14:36.547Z,29.20
2018-05-26T18:17:03.986Z,29.10
2018-05-26T18:19:31.411Z,29.00
2018-05-26T18:21:59.726Z,28.80
2018-05-26T18:24:27.284Z,28.80
2018-05-26T18:26:54.695Z,28.80
2018-05-26T18:29:22.895Z,28.70
2018-05-26T18:31:50.343Z,28.60
2018-05-26T18:34:18.556Z,28.50
2018-05-26T18:36:45.979Z,28.40
2018-05-26T18:39:13.420Z,28.40
2018-05-26T18:41:41.651Z,28.20
2018-05-26T18:44:09.201Z,28.20
2018-05-26T18:46:36.667Z,28.10
2018-05-26T18:49:04.117Z,28.00
2018-05-26T18:51:31.591Z,28.00
2018-05-26T18:53:59.023Z,27.90
2018-05-26T18:56:26.584Z,27.80
2018-05-26T18:58:54.001Z,27.70
2018-05-26T19:01:22.199Z,27.60
2018-05-26T19:03:49.680Z,27.60
2018-05-26T19:06:17.119Z,27.50
2018-05-26T19:08:44.972Z,27.40
2018-05-26T19:11:13.180Z,27.30
2018-05-26T19:13:40.616Z,27.20
2018-05-26T19:16:08.079Z,27.20
2018-05-26T19:18:35.509Z,27.10
2018-05-26T19:21:03.728Z,27.00
2018-05-26T19:23:31.164Z,27.00
2018-05-26T19:25:58.652Z,26.90
2018-05-26T19:28:26.106Z,26.90
2018-05-26T19:30:53.649Z,26.80
2018-05-26T19:33:21.081Z,26.70
2018-05-26T19:35:48.522Z,26.60
2018-05-26T19:38:16.743Z,26.50
2018-05-26T19:40:44.299Z,26.50
2018-05-26T19:43:11.721Z,26.50
2018-05-26T19:45:39.939Z,26.40
2018-05-26T19:48:07.380Z,26.40
2018-05-26T19:50:34.855Z,26.40
2018-05-26T19:53:02.312Z,26.30
2018-05-26T19:55:29.773Z,26.20
2018-05-26T19:57:57.218Z,26.10
2018-05-26T20:00:24.688Z,26.10
2018-05-26T20:02:52.143Z,26.00
2018-05-26T20:05:19.692Z,25.90
2018-05-26T20:07:47.124Z,25.90
2018-05-26T20:10:14.611Z,25.80
2018-05-26T20:12:42.171Z,25.90
2018-05-26T20:15:09.624Z,25.80
2018-05-26T20:17:37.087Z,25.80
2018-05-26T20:20:04.547Z,25.70
2018-05-26T20:22:32.098Z,25.60
2018-05-26T20:24:59.529Z,25.40
2018-05-26T20:27:27.019Z,25.50
2018-05-26T20:29:54.479Z,25.50
2018-05-26T20:32:21.911Z,25.30
2018-05-26T20:34:49.405Z,25.20
2018-05-26T20:37:16.851Z,25.20
2018-05-26T20:39:44.286Z,25.20
2018-05-26T20:42:11.775Z,25.10
2018-05-26T20:44:39.221Z,25.00
2018-05-26T20:47:06.662Z,24.90
2018-05-26T20:49:34.140Z,24.80
2018-05-26T20:52:01.600Z,24.70
2018-05-26T20:54:29.056Z,24.60
2018-05-26T20:56:56.507Z,24.50
2018-05-26T20:59:23.944Z,24.50
2018-05-26T21:01:51.445Z,24.50
2018-05-26T21:04:18.892Z,24.40
2018-05-26T21:06:46.321Z,24.40
2018-05-26T21:09:13.771Z,24.30
2018-05-26T21:11:41.259Z,24.30
2018-05-26T21:14:08.691Z,24.20
2018-05-26T21:16:36.173Z,24.20
2018-05-26T21:19:03.628Z,24.20
2018-05-26T21:21:31.084Z,24.10
2018-05-26T21:23:58.532Z,24.00
2018-05-26T21:26:25.961Z,24.00
2018-05-26T21:28:54.171Z,23.80
2018-05-26T21:31:21.646Z,23.80
2018-05-26T21:33:49.288Z,23.90
2018-05-26T21:36:16.713Z,23.80
2018-05-26T21:38:44.196Z,23.70
2018-05-26T21:41:11.616Z,23.60
2018-05-26T21:43:39.815Z,23.60
2018-05-26T21:46:07.267Z,23.60
2018-05-26T21:48:34.761Z,23.50
2018-05-26T21:51:02.217Z,23.40
2018-05-26T21:53:29.646Z,23.40
2018-05-26T21:55:57.100Z,23.40
2018-05-26T21:58:25.291Z,23.30
2018-05-26T22:00:52.766Z,23.20
2018-05-26T22:03:20.205Z,23.20
2018-05-26T22:05:47.655Z,23.20
2018-05-26T22:08:15.138Z,23.10
2018-05-26T22:10:42.581Z,23.00
2018-05-26T22:13:10.012Z,23.00
2018-05-26T22:15:37.447Z,23.00
2018-05-26T22:18:05.664Z,23.00
2018-05-26T22:20:33.140Z,23.00
2018-05-26T22:23:00.583Z,22.90
2018-05-26T22:25:28.015Z,22.90
2018-05-26T22:27:55.506Z,22.90
2018-05-26T22:30:22.953Z,22.80
2018-05-26T22:32:50.375Z,22.80
2018-05-26T22:35:18.595Z,22.70
2018-05-26T22:37:46.055Z,22.70
2018-05-26T22:40:13.509Z,22.70
2018-05-26T22:42:40.956Z,22.60
2018-05-26T22:45:08.375Z,22.60
2018-05-26T22:47:37.636Z,22.50
2018-05-26T22:50:05.078Z,22.50
2018-05-26T22:52:32.538Z,22.40
2018-05-26T22:54:59.996Z,22.40
2018-05-26T22:57:27.453Z,22.30
2018-05-26T22:59:54.898Z,22.30
2018-05-26T23:02:22.462Z,22.30
2018-05-26T23:04:49.938Z,22.30
2018-05-26T23:07:17.412Z,22.20
2018-05-26T23:09:44.847Z,22.20
2018-05-26T23:12:12.296Z,22.10
2018-05-26T23:14:39.728Z,22.10
2018-05-26T23:17:07.211Z,22.10
2018-05-26T23:19:34.645Z,22.00
2018-05-26T23:22:02.101Z,22.00
2018-05-26T23:24:29.592Z,22.00
2018-05-26T23:26:57.066Z,21.90
2018-05-26T23:29:24.590Z,21.80
2018-05-26T23:31:52.007Z,21.80
2018-05-26T23:34:20.226Z,21.70
2018-05-26T23:36:47.666Z,21.70
2018-05-26T23:39:15.151Z,21.70
2018-05-26T23:41:42.603Z,21.70
2018-05-26T23:44:10.053Z,21.60
2018-05-26T23:46:37.479Z,21.60
2018-05-26T23:49:05.697Z,21.50
2018-05-26T23:51:33.244Z,21.50
2018-05-26T23:54:00.721Z,21.50
2018-05-26T23:56:28.183Z,21.50
2018-05-26T23:58:55.734Z,21.40
